Time;durP1;ratioP1;P1;durP2;ratioP2;P2;SDS_P1;SDS_P2;PMS_P1;PMS_P2;Temp;Humidity;BMP_temperature;BMP_pressure;BME280_temperature;BME280_humidity;BME280_pressure;Samples;Min_cycle;Max_cycle;Signal;HPM_P1;HPM_P2
2023/12/05 00:01:20;;;;;;;7.53;3.37;;;3.70;99.90;;;;;;5072112;28;20044;-54
2023/12/05 00:03:46;;;;;;;7.73;3.33;;;3.70;99.90;;;;;;5074411;28;20169;-55
2023/12/05 00:06:12;;;;;;;9.10;3.87;;;3.70;99.90;;;;;;5075942;28;20070;-51
2023/12/05 00:08:38;;;;;;;5.90;2.80;;;3.70;99.90;;;;;;5075873;28;20495;-54
2023/12/05 00:11:07;;;;;;;6.27;3.20;;;3.70;99.90;;;;;;5075946;28;20042;-54
2023/12/05 00:13:34;;;;;;;8.90;3.57;;;3.70;99.90;;;;;;5075974;28;20083;-55
2023/12/05 00:15:59;;;;;;;6.93;3.47;;;3.80;99.90;;;;;;5075773;28;20024;-54
2023/12/05 00:18:25;;;;;;;5.77;2.90;;;3.80;99.90;;;;;;5075759;28;20382;-55
2023/12/05 00:20:51;;;;;;;7.00;3.53;;;3.80;99.90;;;;;;5075731;28;20029;-54
2023/12/05 00:23:17;;;;;;;5.47;2.50;;;3.80;99.90;;;;;;5075780;28;20029;-52
2023/12/05 00:25:43;;;;;;;8.67;3.63;;;3.80;99.90;;;;;;5080437;28;20027;-52
2023/12/05 00:28:09;;;;;;;7.93;3.53;;;3.90;99.90;;;;;;5095935;28;20528;-54
2023/12/05 00:30:35;;;;;;;13.63;3.43;;;3.90;99.90;;;;;;5095868;28;20036;-52
2023/12/05 00:33:00;;;;;;;10.50;3.97;;;3.90;99.90;;;;;;5095861;28;20028;-54
2023/12/05 00:35:26;;;;;;;6.43;2.97;;;3.90;99.90;;;;;;5094371;28;20123;-54
2023/12/05 00:37:52;;;;;;;7.93;3.87;;;4.00;99.90;;;;;;5095562;28;20031;-54
2023/12/05 00:40:18;;;;;;;8.20;4.03;;;3.90;99.90;;;;;;5094306;28;20043;-55
2023/12/05 00:42:44;;;;;;;7.97;4.20;;;3.90;99.90;;;;;;5095903;28;20076;-54
2023/12/05 00:45:13;;;;;;;5.93;2.90;;;4.00;99.90;;;;;;5095464;28;20027;-52
2023/12/05 00:47:40;;;;;;;10.03;4.33;;;4.00;99.90;;;;;;5095624;28;20028;-56
2023/12/05 00:50:06;;;;;;;8.37;3.97;;;4.00;99.90;;;;;;5095370;28;20166;-55
2023/12/05 00:52:32;;;;;;;8.77;3.40;;;4.00;99.90;;;;;;5095433;28;20063;-52
2023/12/05 00:54:57;;;;;;;9.97;4.40;;;4.00;99.90;;;;;;5095492;28;20023;-51
2023/12/05 00:57:23;;;;;;;8.27;3.80;;;4.00;99.90;;;;;;5095467;28;20043;-51
2023/12/05 00:59:49;;;;;;;8.33;4.13;;;4.00;99.90;;;;;;5095251;28;20114;-50
2023/12/05 01:02:14;;;;;;;8.40;4.00;;;4.00;99.90;;;;;;5095241;28;20027;-51
2023/12/05 01:04:40;;;;;;;9.63;4.23;;;4.00;99.90;;;;;;5095235;28;20035;-51
2023/12/05 01:07:06;;;;;;;7.60;3.57;;;4.00;99.90;;;;;;5095205;28;20373;-54
2023/12/05 01:09:31;;;;;;;7.90;3.43;;;4.00;99.90;;;;;;5095316;28;20043;-52
2023/12/05 01:11:57;;;;;;;9.60;4.33;;;4.10;99.90;;;;;;5095574;28;20055;-54
2023/12/05 01:14:23;;;;;;;8.13;3.87;;;4.10;99.90;;;;;;5094921;28;20089;-51
2023/12/05 01:16:48;;;;;;;8.90;4.37;;;4.10;99.90;;;;;;5095405;28;20027;-51
2023/12/05 01:19:14;;;;;;;10.47;4.70;;;4.10;99.90;;;;;;5094994;28;20032;-51
2023/12/05 01:21:39;;;;;;;9.67;3.97;;;4.10;99.90;;;;;;5095751;28;20527;-51
2023/12/05 01:24:06;;;;;;;10.23;4.00;;;4.20;99.90;;;;;;5095974;28;20165;-51
2023/12/05 01:26:31;;;;;;;8.03;3.47;;;4.20;99.90;;;;;;5096331;28;20465;-51
2023/12/05 01:28:57;;;;;;;6.20;3.30;;;4.10;99.90;;;;;;5095482;28;20061;-51
2023/12/05 01:31:22;;;;;;;7.53;3.77;;;4.20;99.90;;;;;;5095209;28;20035;-51
2023/12/05 01:33:48;;;;;;;7.83;3.07;;;4.20;99.90;;;;;;5094832;28;20119;-54
2023/12/05 01:36:14;;;;;;;9.03;3.63;;;4.20;99.90;;;;;;5094359;28;20031;-53
2023/12/05 01:38:40;;;;;;;7.47;3.30;;;4.20;99.90;;;;;;5094534;28;20039;-54
2023/12/05 01:41:07;;;;;;;7.33;3.63;;;4.10;99.90;;;;;;5093255;28;20060;-55
2023/12/05 01:43:33;;;;;;;6.30;3.10;;;4.20;99.90;;;;;;5094385;28;20036;-55
2023/12/05 01:45:59;;;;;;;10.60;4.17;;;4.20;99.90;;;;;;5092826;28;20540;-54
2023/12/05 01:48:26;;;;;;;7.03;2.93;;;4.10;99.90;;;;;;5094212;28;20067;-55
2023/12/05 01:50:53;;;;;;;9.70;4.10;;;4.20;99.90;;;;;;5094316;28;20155;-51
2023/12/05 01:53:21;;;;;;;9.63;3.77;;;4.10;99.90;;;;;;5094320;28;20093;-53
2023/12/05 01:55:47;;;;;;;7.40;3.40;;;4.10;99.90;;;;;;5094206;28;20385;-52
2023/12/05 01:58:13;;;;;;;7.67;3.53;;;4.20;99.90;;;;;;5094020;28;20024;-55
2023/12/05 02:00:39;;;;;;;7.73;4.13;;;4.20;99.90;;;;;;5094002;28;20078;-55
2023/12/05 02:03:05;;;;;;;9.73;3.70;;;4.10;99.90;;;;;;5094131;28;20032;-54
2023/12/05 02:05:31;;;;;;;7.57;3.73;;;4.20;99.90;;;;;;5093903;28;20028;-54
2023/12/05 02:07:57;;;;;;;8.97;4.20;;;4.20;99.90;;;;;;5092714;28;20032;-55
2023/12/05 02:10:23;;;;;;;11.23;4.30;;;4.20;99.90;;;;;;5093667;28;20039;-54
2023/12/05 02:12:49;;;;;;;10.50;3.63;;;4.20;99.90;;;;;;5093967;28;20043;-51
2023/12/05 02:15:14;;;;;;;9.57;4.00;;;4.20;99.90;;;;;;5093731;28;20115;-52
2023/12/05 02:18:01;;;;;;;7.23;3.83;;;4.30;99.90;;;;;;5093712;28;20028;-54
2023/12/05 02:20:50;;;;;;;7.13;3.53;;;4.30;99.90;;;;;;5093652;28;20059;-52
2023/12/05 02:23:38;;;;;;;9.65;3.95;;;4.30;99.90;;;;;;5093786;28;20024;-55
2023/12/05 02:26:13;;;;;;;6.77;3.50;;;4.20;99.90;;;;;;5062497;28;20085;-53
2023/12/05 02:28:39;;;;;;;6.87;3.80;;;4.20;99.90;;;;;;5093546;28;20103;-55
2023/12/05 02:31:05;;;;;;;7.83;3.80;;;4.30;99.90;;;;;;5093614;28;20516;-53
2023/12/05 02:33:31;;;;;;;8.87;4.17;;;4.30;99.90;;;;;;5093815;28;20036;-55
2023/12/05 02:36:08;;;;;;;10.80;4.00;;;4.40;99.90;;;;;;5093425;28;20073;-55
2023/12/05 02:38:48;;;;;;;6.87;3.60;;;4.30;99.90;;;;;;5093240;28;20040;-52
2023/12/05 02:41:19;;;;;;;;;;;4.30;99.90;;;;;;5093996;28;20035;-55
2023/12/05 02:43:59;;;;;;;7.07;3.50;;;4.40;99.90;;;;;;5093345;28;19908;-54
2023/12/05 02:46:25;;;;;;;4.30;2.00;;;4.40;99.90;;;;;;5093254;28;20036;-55
2023/12/05 02:48:53;;;;;;;6.43;3.10;;;4.50;99.90;;;;;;5093105;28;20427;-53
2023/12/05 02:51:19;;;;;;;7.30;3.00;;;4.50;99.90;;;;;;5093136;28;20021;-55
2023/12/05 02:53:44;;;;;;;7.80;3.33;;;4.50;99.90;;;;;;5093220;28;20107;-55
2023/12/05 02:56:10;;;;;;;5.40;2.93;;;4.50;99.90;;;;;;5093066;28;20089;-51
2023/12/05 02:58:36;;;;;;;8.27;3.13;;;4.50;99.90;;;;;;5092925;28;20482;-54
2023/12/05 03:01:02;;;;;;;6.27;3.00;;;4.50;99.90;;;;;;5093059;28;20038;-54
2023/12/05 03:03:27;;;;;;;7.77;3.37;;;4.50;99.90;;;;;;5074650;28;20020;-55
2023/12/05 03:05:53;;;;;;;6.17;3.17;;;4.50;99.90;;;;;;5091739;28;20383;-52
2023/12/05 03:08:19;;;;;;;7.13;3.20;;;4.40;99.90;;;;;;5092779;28;20035;-54
2023/12/05 03:10:44;;;;;;;6.83;3.40;;;4.50;99.90;;;;;;5092872;28;20016;-56
2023/12/05 03:13:10;;;;;;;7.80;3.43;;;4.40;99.90;;;;;;5092804;28;20028;-51
2023/12/05 03:15:35;;;;;;;6.53;3.13;;;4.40;99.90;;;;;;5091229;28;20024;-55
2023/12/05 03:18:01;;;;;;;5.83;3.13;;;4.40;99.90;;;;;;5091300;28;20383;-54
2023/12/05 03:20:26;;;;;;;8.77;3.43;;;4.50;99.90;;;;;;5092480;28;20635;-52
2023/12/05 03:22:52;;;;;;;7.00;3.30;;;4.50;99.90;;;;;;5092881;28;20032;-56
2023/12/05 03:25:18;;;;;;;6.10;3.00;;;4.50;99.90;;;;;;5092633;28;20035;-53
2023/12/05 03:27:43;;;;;;;7.80;3.63;;;4.50;99.90;;;;;;5092673;28;20392;-52
2023/12/05 03:30:09;;;;;;;4.43;2.10;;;4.50;99.90;;;;;;5092368;28;20024;-55
2023/12/05 03:32:35;;;;;;;7.37;3.07;;;4.50;99.90;;;;;;5091253;28;20150;-52
2023/12/05 03:35:01;;;;;;;6.90;3.27;;;4.50;99.90;;;;;;5092336;28;20505;-56
2023/12/05 03:37:26;;;;;;;8.57;3.27;;;4.60;99.90;;;;;;5092302;28;20024;-55
2023/12/05 03:39:52;;;;;;;6.97;2.93;;;4.60;99.90;;;;;;5092328;28;20035;-55
2023/12/05 03:42:17;;;;;;;6.33;3.17;;;4.50;99.90;;;;;;5092373;28;20039;-51
2023/12/05 03:44:43;;;;;;;4.47;2.30;;;4.50;99.90;;;;;;5092283;28;20506;-55
2023/12/05 03:47:08;;;;;;;5.47;2.60;;;4.60;99.90;;;;;;5092435;28;20036;-56
2023/12/05 03:49:34;;;;;;;5.80;2.90;;;4.60;99.90;;;;;;5090761;28;20561;-54
2023/12/05 03:52:01;;;;;;;7.37;2.57;;;4.60;99.90;;;;;;5092324;28;20028;-56
2023/12/05 03:54:27;;;;;;;6.60;3.03;;;4.60;99.90;;;;;;5092199;28;20028;-56
2023/12/05 03:56:53;;;;;;;6.10;3.00;;;4.60;99.90;;;;;;5092196;28;20115;-56
2023/12/05 03:59:18;;;;;;;5.93;2.70;;;4.70;99.90;;;;;;5092062;28;20115;-55
2023/12/05 04:01:44;;;;;;;7.17;3.37;;;4.70;99.90;;;;;;5092076;28;20384;-55
2023/12/05 04:04:10;;;;;;;8.23;3.20;;;4.60;99.90;;;;;;5092163;28;20058;-55
2023/12/05 04:06:35;;;;;;;6.67;3.20;;;4.70;99.90;;;;;;5090543;28;20728;-53
2023/12/05 04:09:01;;;;;;;5.37;3.00;;;4.70;99.90;;;;;;5091968;28;20043;-55
2023/12/05 04:11:30;;;;;;;6.23;2.90;;;4.80;99.90;;;;;;5090582;28;20046;-54
2023/12/05 04:13:57;;;;;;;5.80;3.23;;;4.80;99.90;;;;;;5090763;28;20032;-56
2023/12/05 04:16:22;;;;;;;6.17;3.07;;;4.80;99.90;;;;;;5091864;28;20699;-56
2023/12/05 04:18:48;;;;;;;7.00;3.73;;;4.80;99.90;;;;;;5091813;28;20028;-55
2023/12/05 04:21:14;;;;;;;8.03;3.50;;;4.80;99.90;;;;;;5092041;28;20051;-56
2023/12/05 04:23:40;;;;;;;7.07;3.40;;;4.80;99.90;;;;;;5092028;28;20044;-54
2023/12/05 04:26:06;;;;;;;7.47;3.43;;;4.80;99.90;;;;;;5091554;28;20035;-55
2023/12/05 04:28:32;;;;;;;6.93;3.17;;;4.80;99.90;;;;;;5090627;28;20058;-53
2023/12/05 04:30:58;;;;;;;7.43;3.97;;;4.80;99.90;;;;;;5091551;28;20472;-54
2023/12/05 04:33:23;;;;;;;7.93;3.30;;;4.80;99.90;;;;;;5091826;28;20032;-52
2023/12/05 04:35:49;;;;;;;7.37;3.40;;;4.80;99.90;;;;;;5091686;28;20051;-55
2023/12/05 04:38:16;;;;;;;6.83;3.23;;;4.80;99.90;;;;;;5091754;28;20115;-55
2023/12/05 04:40:41;;;;;;;7.77;4.30;;;4.80;99.90;;;;;;5091772;28;20036;-53
2023/12/05 04:43:07;;;;;;;6.60;3.03;;;4.90;99.90;;;;;;5091805;28;20499;-55
2023/12/05 04:45:33;;;;;;;11.27;3.10;;;4.90;99.90;;;;;;5081171;28;20027;-54
2023/12/05 04:47:58;;;;;;;9.17;3.80;;;4.90;99.90;;;;;;5070187;28;20108;-56
2023/12/05 04:50:24;;;;;;;7.07;3.20;;;4.80;99.90;;;;;;5073577;28;20420;-56
2023/12/05 04:52:49;;;;;;;7.33;3.00;;;4.90;99.90;;;;;;5088199;28;20035;-52
2023/12/05 04:55:15;;;;;;;7.20;3.27;;;4.90;99.90;;;;;;5086054;28;20043;-55
2023/12/05 04:57:41;;;;;;;7.37;2.87;;;5.00;99.90;;;;;;5094510;28;20499;-55
2023/12/05 05:00:08;;;;;;;5.27;2.60;;;5.00;99.90;;;;;;5085627;28;20103;-53
2023/12/05 05:02:34;;;;;;;4.90;2.83;;;5.10;99.90;;;;;;5094353;28;20329;-54
2023/12/05 05:05:00;;;;;;;5.60;2.43;;;5.10;99.90;;;;;;5085641;28;20024;-53
2023/12/05 05:07:25;;;;;;;6.93;2.60;;;5.10;99.90;;;;;;5090364;28;20032;-55
2023/12/05 05:09:51;;;;;;;6.37;2.80;;;5.10;99.90;;;;;;5081541;28;20029;-52
2023/12/05 05:12:17;;;;;;;8.20;2.83;;;5.10;99.90;;;;;;5083777;28;20039;-55
2023/12/05 05:14:43;;;;;;;7.13;2.90;;;5.20;99.90;;;;;;5078369;28;20025;-55
2023/12/05 05:17:09;;;;;;;6.40;3.13;;;5.20;99.90;;;;;;5081376;28;20082;-54
2023/12/05 05:19:35;;;;;;;6.77;2.77;;;5.20;99.90;;;;;;5083073;28;20111;-54
2023/12/05 05:22:00;;;;;;;5.90;2.50;;;5.30;99.90;;;;;;5087206;28;20028;-55
2023/12/05 05:24:26;;;;;;;4.83;2.23;;;5.30;99.90;;;;;;5084774;28;20104;-55
2023/12/05 05:26:51;;;;;;;5.50;2.30;;;5.30;99.90;;;;;;5077329;28;20394;-55
2023/12/05 05:29:17;;;;;;;5.07;2.57;;;5.30;99.90;;;;;;5072453;28;20036;-54
2023/12/05 05:31:42;;;;;;;7.30;2.83;;;5.30;99.90;;;;;;5086854;28;20028;-51
2023/12/05 05:34:08;;;;;;;5.10;2.53;;;5.40;99.90;;;;;;5083416;28;20033;-55
2023/12/05 05:36:34;;;;;;;6.87;3.10;;;5.40;99.90;;;;;;5082568;28;20028;-54
2023/12/05 05:39:00;;;;;;;5.70;2.60;;;5.40;99.90;;;;;;5091176;28;20039;-53
2023/12/05 05:41:26;;;;;;;5.60;2.43;;;5.40;99.90;;;;;;5079651;28;20074;-57
2023/12/05 05:43:52;;;;;;;6.07;3.10;;;5.50;99.90;;;;;;5072725;28;20028;-54
2023/12/05 05:46:17;;;;;;;5.93;3.17;;;5.50;99.90;;;;;;5074785;28;20032;-54
2023/12/05 05:48:43;;;;;;;5.77;2.90;;;5.50;99.90;;;;;;5093040;28;20430;-53
2023/12/05 05:51:09;;;;;;;4.17;1.97;;;5.50;99.90;;;;;;5074584;28;20430;-54
2023/12/05 05:53:35;;;;;;;5.00;2.20;;;5.50;99.90;;;;;;5086000;28;20024;-55
2023/12/05 05:56:01;;;;;;;6.23;2.87;;;5.60;99.90;;;;;;5084205;28;20024;-54
2023/12/05 05:58:27;;;;;;;6.90;3.30;;;5.60;99.90;;;;;;5084281;28;20419;-53
2023/12/05 06:00:53;;;;;;;5.87;2.87;;;5.50;99.90;;;;;;5091179;28;20393;-55
2023/12/05 06:03:19;;;;;;;6.30;3.00;;;5.60;99.90;;;;;;5092372;28;20125;-55
2023/12/05 06:05:44;;;;;;;9.20;3.07;;;5.50;99.90;;;;;;5077974;28;20025;-54
2023/12/05 06:08:10;;;;;;;7.20;3.33;;;5.60;99.90;;;;;;5073476;28;20066;-56
2023/12/05 06:10:36;;;;;;;6.30;3.00;;;5.60;99.90;;;;;;5087298;28;20029;-55
2023/12/05 06:13:01;;;;;;;7.20;3.20;;;5.50;99.90;;;;;;5080228;28;20423;-54
2023/12/05 06:15:27;;;;;;;8.43;3.50;;;5.60;99.90;;;;;;5079955;28;20025;-55
2023/12/05 06:17:53;;;;;;;6.27;3.03;;;5.60;99.90;;;;;;5071988;28;20480;-56
2023/12/05 06:20:18;;;;;;;6.57;3.20;;;5.60;99.90;;;;;;5080048;28;20058;-55
2023/12/05 06:22:44;;;;;;;7.73;3.37;;;5.70;99.90;;;;;;5071838;28;20036;-55
2023/12/05 06:25:10;;;;;;;6.40;3.43;;;5.70;99.90;;;;;;5071625;28;20034;-55
2023/12/05 06:27:35;;;;;;;3.60;2.07;;;5.70;99.90;;;;;;5071812;28;20031;-56
2023/12/05 06:30:01;;;;;;;6.90;2.80;;;5.70;99.90;;;;;;5080204;28;20032;-56
2023/12/05 06:32:26;;;;;;;8.17;3.60;;;5.70;99.90;;;;;;5080166;28;20043;-56
2023/12/05 06:34:52;;;;;;;8.73;3.80;;;5.80;99.90;;;;;;5072076;28;20040;-55
2023/12/05 06:37:18;;;;;;;6.43;3.40;;;5.70;99.90;;;;;;5076327;28;20154;-55
2023/12/05 06:39:43;;;;;;;6.57;2.60;;;5.80;99.90;;;;;;5082958;28;20111;-55
2023/12/05 06:42:09;;;;;;;7.23;3.77;;;5.80;99.90;;;;;;5093577;28;20107;-55
2023/12/05 06:44:34;;;;;;;6.23;3.10;;;5.80;99.90;;;;;;5079872;28;20279;-56
2023/12/05 06:47:00;;;;;;;8.10;3.03;;;5.80;99.90;;;;;;5071528;28;20475;-56
2023/12/05 06:49:26;;;;;;;6.20;3.07;;;5.80;99.90;;;;;;5079679;28;20107;-53
2023/12/05 06:51:56;;;;;;;5.53;2.33;;;5.80;99.90;;;;;;5078067;28;20020;-52
2023/12/05 06:54:22;;;;;;;6.13;3.13;;;5.80;99.90;;;;;;5082762;28;20037;-56
2023/12/05 06:56:48;;;;;;;6.50;2.90;;;5.90;99.90;;;;;;5082668;28;20028;-55
2023/12/05 06:59:14;;;;;;;6.00;3.20;;;5.80;99.90;;;;;;5081632;28;20070;-54
2023/12/05 07:01:40;;;;;;;7.50;3.00;;;5.90;99.90;;;;;;5075638;28;20111;-57
2023/12/05 07:04:07;;;;;;;6.63;2.87;;;5.90;99.90;;;;;;5082769;28;20040;-57
2023/12/05 07:06:32;;;;;;;6.23;2.40;;;5.90;99.90;;;;;;5074410;28;20059;-55
2023/12/05 07:08:58;;;;;;;6.00;2.90;;;6.00;99.90;;;;;;5075613;28;20064;-53
2023/12/05 07:11:27;;;;;;;5.43;2.23;;;6.00;99.90;;;;;;5070191;28;20094;-55
2023/12/05 07:13:53;;;;;;;6.35;2.83;;;6.00;99.90;;;;;;5070873;28;20029;-57
2023/12/05 07:16:19;;;;;;;6.23;2.80;;;6.00;99.90;;;;;;5070588;28;20071;-56
2023/12/05 07:18:45;;;;;;;10.97;3.57;;;6.00;99.90;;;;;;5079561;28;20056;-59
2023/12/05 07:21:11;;;;;;;9.60;4.00;;;6.00;99.90;;;;;;5071271;28;20055;-56
2023/12/05 07:23:36;;;;;;;6.30;3.17;;;6.00;99.90;;;;;;5082924;28;20024;-59
2023/12/05 07:26:02;;;;;;;6.47;3.10;;;6.00;99.90;;;;;;5075228;28;20047;-56
2023/12/05 07:28:28;;;;;;;7.43;3.40;;;6.00;99.90;;;;;;5073561;28;20034;-58
2023/12/05 07:30:54;;;;;;;6.10;2.90;;;6.00;99.90;;;;;;5076161;28;20021;-58
2023/12/05 07:33:20;;;;;;;7.67;3.50;;;6.00;99.90;;;;;;5070841;28;20029;-59
2023/12/05 07:35:46;;;;;;;7.93;3.60;;;6.00;99.90;;;;;;5084426;28;20051;-59
2023/12/05 07:38:12;;;;;;;6.77;3.20;;;6.00;99.90;;;;;;5082833;28;20032;-58
2023/12/05 07:40:38;;;;;;;5.73;2.87;;;6.00;99.90;;;;;;5078803;28;20427;-59
2023/12/05 07:43:03;;;;;;;7.40;3.30;;;6.00;99.90;;;;;;5086836;28;20028;-59
2023/12/05 07:45:29;;;;;;;7.23;3.10;;;6.10;99.90;;;;;;5078872;28;20035;-57
2023/12/05 07:47:54;;;;;;;6.17;2.67;;;6.10;99.90;;;;;;5084612;28;20052;-59
2023/12/05 07:50:20;;;;;;;5.43;2.73;;;6.10;99.90;;;;;;5090721;28;20031;-58
2023/12/05 07:52:50;;;;;;;6.47;2.70;;;6.10;99.90;;;;;;5078071;28;20088;-56
2023/12/05 07:55:19;;;;;;;6.10;3.03;;;6.10;99.90;;;;;;5070364;28;20029;-57
2023/12/05 07:57:46;;;;;;;;;;;6.10;99.90;;;;;;5070525;28;20101;-59
2023/12/05 08:00:16;;;;;;;6.10;2.50;;;6.10;99.90;;;;;;5076224;28;20614;-54
2023/12/05 08:02:43;;;;;;;7.37;2.97;;;6.10;99.90;;;;;;5084508;28;20039;-58
2023/12/05 08:05:09;;;;;;;7.60;2.70;;;6.10;99.90;;;;;;5075409;28;20663;-56
2023/12/05 08:07:35;;;;;;;7.17;2.83;;;6.10;99.90;;;;;;5085081;28;20050;-56
2023/12/05 08:10:00;;;;;;;5.50;2.20;;;6.10;99.90;;;;;;5068659;28;20473;-58
2023/12/05 08:12:26;;;;;;;5.77;3.00;;;6.20;99.90;;;;;;5076736;28;20077;-58
2023/12/05 08:14:52;;;;;;;7.10;2.83;;;6.30;99.90;;;;;;5068735;28;20104;-57
2023/12/05 08:17:17;;;;;;;7.27;3.37;;;6.30;99.90;;;;;;5076680;28;20024;-57
2023/12/05 08:19:43;;;;;;;4.60;2.43;;;6.30;99.90;;;;;;5081036;28;20035;-57
2023/12/05 08:22:08;;;;;;;5.60;2.73;;;6.40;99.90;;;;;;5072531;28;20534;-57
2023/12/05 08:24:34;;;;;;;5.37;2.77;;;6.40;99.90;;;;;;5081494;28;20104;-58
2023/12/05 08:27:00;;;;;;;6.97;2.87;;;6.40;99.90;;;;;;5077740;28;20338;-57
2023/12/05 08:29:25;;;;;;;7.60;3.00;;;6.40;99.90;;;;;;5080261;28;20051;-58
2023/12/05 08:31:51;;;;;;;4.73;2.67;;;6.40;99.90;;;;;;5070052;28;20489;-58
2023/12/05 08:34:16;;;;;;;4.53;2.50;;;6.40;99.90;;;;;;5072683;28;20039;-57
2023/12/05 08:36:44;;;;;;;11.93;5.57;;;6.40;99.90;;;;;;5072330;28;20037;-56
2023/12/05 08:39:11;;;;;;;6.60;3.13;;;6.50;99.90;;;;;;5043419;28;1069413;-56
2023/12/05 08:41:36;;;;;;;6.40;2.73;;;6.40;99.90;;;;;;5084947;28;20035;-56
2023/12/05 08:44:02;;;;;;;6.50;3.17;;;6.40;99.90;;;;;;5085072;28;20032;-56
2023/12/05 08:46:28;;;;;;;6.00;2.70;;;6.40;99.90;;;;;;5074667;28;20055;-56
2023/12/05 08:48:53;;;;;;;8.47;3.43;;;6.40;99.90;;;;;;5073480;28;20081;-56
2023/12/05 08:51:19;;;;;;;5.97;2.90;;;6.40;99.90;;;;;;5072546;28;20040;-58
2023/12/05 08:53:45;;;;;;;5.33;3.33;;;6.50;99.90;;;;;;5073328;28;20028;-57
2023/12/05 08:56:11;;;;;;;7.17;3.10;;;6.50;99.90;;;;;;5073084;28;20028;-57
2023/12/05 08:58:37;;;;;;;6.77;3.30;;;6.50;99.90;;;;;;5081332;28;20029;-57
2023/12/05 09:01:03;;;;;;;5.87;3.10;;;6.50;99.90;;;;;;5081351;28;20036;-57
2023/12/05 09:03:30;;;;;;;5.53;2.63;;;6.40;99.90;;;;;;5088313;28;20032;-56
2023/12/05 09:05:55;;;;;;;7.37;3.13;;;6.50;99.90;;;;;;5078143;28;20028;-51
2023/12/05 09:08:22;;;;;;;6.93;3.47;;;6.50;99.90;;;;;;5075732;28;20089;-54
2023/12/05 09:10:47;;;;;;;6.63;3.13;;;6.50;99.90;;;;;;5088272;28;20418;-50
2023/12/05 09:13:15;;;;;;;7.43;2.97;;;6.40;99.90;;;;;;5071216;28;20039;-53
2023/12/05 09:15:40;;;;;;;6.47;3.10;;;6.50;99.90;;;;;;5070972;28;20028;-52
2023/12/05 09:18:06;;;;;;;7.63;3.33;;;6.50;99.90;;;;;;5072683;28;20482;-56
2023/12/05 09:20:32;;;;;;;6.40;3.53;;;6.60;99.90;;;;;;5074838;28;20173;-54
2023/12/05 09:22:57;;;;;;;7.37;3.27;;;6.60;99.90;;;;;;5086711;28;20033;-57
2023/12/05 09:25:23;;;;;;;10.03;3.33;;;6.60;99.90;;;;;;5088998;28;20491;-57
2023/12/05 09:27:49;;;;;;;7.00;3.80;;;6.70;99.90;;;;;;5080662;28;20032;-56
2023/12/05 09:30:14;;;;;;;6.43;2.93;;;6.70;99.90;;;;;;5088772;28;20044;-56
2023/12/05 09:32:40;;;;;;;6.97;3.13;;;6.70;99.90;;;;;;5092221;28;20114;-57
2023/12/05 09:35:06;;;;;;;9.17;3.50;;;6.70;99.90;;;;;;5092305;28;20032;-56
2023/12/05 09:37:32;;;;;;;7.30;3.03;;;6.70;99.90;;;;;;5091867;28;20024;-55
2023/12/05 09:39:58;;;;;;;5.40;2.73;;;6.70;99.90;;;;;;5092842;28;20028;-57
2023/12/05 09:42:25;;;;;;;6.00;3.43;;;6.70;99.90;;;;;;5092150;28;20067;-56
2023/12/05 09:44:52;;;;;;;4.77;2.27;;;6.70;99.90;;;;;;5074623;28;20104;-56
2023/12/05 09:47:20;;;;;;;4.97;2.70;;;6.70;99.90;;;;;;5084097;28;20196;-57
2023/12/05 09:49:46;;;;;;;8.77;3.30;;;6.70;99.90;;;;;;5083842;28;20091;-56
2023/12/05 09:52:12;;;;;;;5.20;3.00;;;6.80;99.90;;;;;;5085297;28;20074;-56
2023/12/05 09:54:37;;;;;;;5.07;2.57;;;6.80;99.90;;;;;;5082591;28;20028;-57
2023/12/05 09:57:04;;;;;;;6.37;2.80;;;6.70;99.90;;;;;;5084690;28;20025;-57
2023/12/05 09:59:30;;;;;;;5.17;3.20;;;6.70;99.90;;;;;;5080149;28;20051;-57
2023/12/05 10:02:00;;;;;;;6.60;2.60;;;6.80;99.90;;;;;;5071675;28;20029;-57
2023/12/05 10:04:28;;;;;;;4.40;2.50;;;6.80;99.90;;;;;;5088763;28;20027;-57
2023/12/05 10:06:57;;;;;;;5.73;2.97;;;6.80;99.90;;;;;;5091968;28;20125;-56
2023/12/05 10:09:23;;;;;;;3.72;2.58;;;6.80;99.90;;;;;;5074726;28;20029;-57
2023/12/05 10:11:50;;;;;;;6.73;2.70;;;6.70;99.90;;;;;;5079968;28;20035;-57
2023/12/05 10:14:15;;;;;;;5.70;2.20;;;6.70;99.90;;;;;;5071479;28;20103;-58
2023/12/05 10:16:43;;;;;;;6.13;2.50;;;6.70;99.90;;;;;;5073836;28;20453;-57
2023/12/05 10:19:09;;;;;;;7.57;2.83;;;6.80;99.90;;;;;;5091271;28;20388;-58
2023/12/05 10:21:36;;;;;;;4.73;2.53;;;6.80;99.90;;;;;;5081201;28;20025;-58
2023/12/05 10:24:02;;;;;;;6.23;2.87;;;6.80;99.90;;;;;;5076270;28;20401;-57
2023/12/05 10:26:31;;;;;;;4.77;2.27;;;6.80;99.90;;;;;;5079945;28;20067;-57
2023/12/05 10:28:57;;;;;;;6.00;2.92;;;6.90;99.90;;;;;;5091625;28;20036;-58
2023/12/05 10:31:23;;;;;;;5.47;2.47;;;6.80;99.90;;;;;;5082865;28;20039;-56
2023/12/05 10:33:52;;;;;;;5.63;2.73;;;6.80;99.90;;;;;;5074819;28;20445;-57
2023/12/05 10:36:18;;;;;;;3.40;1.75;;;6.80;99.90;;;;;;5084597;28;20040;-57
2023/12/05 10:38:45;;;;;;;7.00;2.90;;;6.80;99.90;;;;;;5080170;28;20043;-58
2023/12/05 10:41:12;;;;;;;8.13;2.83;;;6.80;99.90;;;;;;5071176;28;20115;-57
2023/12/05 10:43:46;;;;;;;8.63;2.87;;;6.80;99.90;;;;;;5073078;28;20365;-57
2023/12/05 10:46:12;;;;;;;6.93;2.97;;;6.90;99.90;;;;;;5075756;28;20032;-57
2023/12/05 10:48:38;;;;;;;5.53;2.17;;;6.90;99.90;;;;;;5070817;28;20480;-58
2023/12/05 10:51:04;;;;;;;5.23;2.73;;;6.80;99.90;;;;;;5076236;28;20024;-57
2023/12/05 10:53:34;;;;;;;4.87;2.67;;;6.80;99.90;;;;;;5073728;28;20025;-54
2023/12/05 10:56:18;;;;;;;5.23;2.70;;;6.70;99.90;;;;;;5077803;28;20066;-57
2023/12/05 10:58:43;;;;;;;4.90;2.67;;;6.90;99.90;;;;;;5070442;28;20111;-56
2023/12/05 11:01:10;;;;;;;5.13;2.23;;;6.90;99.90;;;;;;5070871;28;20107;-57
2023/12/05 11:03:40;;;;;;;4.30;2.43;;;6.90;99.90;;;;;;5070582;28;20028;-56
2023/12/05 11:06:08;;;;;;;5.65;2.80;;;6.90;99.90;;;;;;5070526;28;20025;-56
2023/12/05 11:08:35;;;;;;;4.20;2.37;;;6.80;99.90;;;;;;5078761;28;20054;-57
2023/12/05 11:11:04;;;;;;;8.13;2.90;;;6.90;99.90;;;;;;5083517;28;20465;-57
2023/12/05 11:13:34;;;;;;;3.80;2.20;;;6.90;99.90;;;;;;5073486;28;20369;-56
2023/12/05 11:16:19;;;;;;;5.47;2.67;;;6.90;99.90;;;;;;5078763;28;20028;-56
2023/12/05 11:18:51;;;;;;;4.67;2.47;;;6.90;99.90;;;;;;5070329;28;20173;-55
2023/12/05 11:21:36;;;;;;;5.63;3.03;;;6.90;99.90;;;;;;5070456;28;20021;-54
2023/12/05 11:24:28;;;;;;;7.40;2.90;;;6.90;99.90;;;;;;5079194;28;20422;-55
2023/12/05 11:27:20;;;;;;;4.67;2.33;;;6.90;99.90;;;;;;5078740;28;20358;-53
2023/12/05 11:29:57;;;;;;;7.43;2.80;;;6.90;99.90;;;;;;5081081;28;20074;-54
2023/12/05 11:32:51;;;;;;;4.27;2.10;;;6.90;99.90;;;;;;5074089;28;20085;-56
2023/12/05 11:35:41;;;;;;;7.77;2.43;;;6.90;99.90;;;;;;5076801;28;20453;-56
2023/12/05 11:38:11;;;;;;;3.23;2.00;;;6.80;99.90;;;;;;5090698;28;20065;-55
2023/12/05 11:40:37;;;;;;;3.73;2.10;;;6.90;99.90;;;;;;5089990;28;20479;-57
2023/12/05 11:43:07;;;;;;;6.50;2.17;;;6.80;99.90;;;;;;5090299;28;20100;-57
2023/12/05 11:45:57;;;;;;;4.67;2.23;;;6.80;99.90;;;;;;5077914;28;20028;-58
2023/12/05 11:48:24;;;;;;;2.90;1.47;;;6.80;99.90;;;;;;5074950;28;20043;-57
2023/12/05 11:50:51;;;;;;;4.53;2.07;;;6.80;99.90;;;;;;5069698;28;20089;-55
2023/12/05 11:53:18;;;;;;;3.63;1.80;;;6.80;99.90;;;;;;5076920;28;20073;-57
2023/12/05 11:55:48;;;;;;;3.73;2.23;;;6.80;99.90;;;;;;5080262;28;20107;-56
2023/12/05 11:58:27;;;;;;;4.40;2.00;;;6.80;99.90;;;;;;5069626;28;20031;-58
2023/12/05 12:01:00;;;;;;;;;;;6.90;99.90;;;;;;5078934;28;20361;-57
2023/12/05 12:03:27;;;;;;;3.40;1.83;;;6.90;99.90;;;;;;5078769;28;20238;-57
2023/12/05 12:06:02;;;;;;;3.27;1.80;;;6.90;99.90;;;;;;5069684;28;20028;-55
2023/12/05 12:08:28;;;;;;;4.17;2.90;;;6.90;99.90;;;;;;5070161;28;20123;-56
2023/12/05 12:10:56;;;;;;;2.77;1.77;;;6.90;99.90;;;;;;5078010;28;20033;-57
2023/12/05 12:13:21;;;;;;;3.13;1.70;;;6.80;99.90;;;;;;5070389;28;20420;-57
2023/12/05 12:15:47;;;;;;;2.57;1.63;;;6.90;99.90;;;;;;5068326;28;20029;-54
2023/12/05 12:18:13;;;;;;;4.00;2.00;;;6.90;99.90;;;;;;5070014;28;20036;-56
2023/12/05 12:20:38;;;;;;;4.77;1.70;;;6.90;99.90;;;;;;5069765;28;20043;-57
2023/12/05 12:23:04;;;;;;;3.30;1.70;;;6.90;99.90;;;;;;5078180;28;20036;-54
2023/12/05 12:25:30;;;;;;;5.20;1.83;;;6.90;99.90;;;;;;5069998;28;20033;-56
2023/12/05 12:27:56;;;;;;;4.30;1.70;;;6.80;99.90;;;;;;5081669;28;20037;-56
2023/12/05 12:30:22;;;;;;;5.90;1.73;;;6.80;99.90;;;;;;5084037;28;20097;-56
2023/12/05 12:33:13;;;;;;;5.73;1.90;;;6.80;99.90;;;;;;5079374;28;20028;-57
2023/12/05 12:35:39;;;;;;;2.90;1.70;;;6.70;99.90;;;;;;5078473;28;20044;-58
2023/12/05 12:38:05;;;;;;;5.40;1.90;;;6.80;99.90;;;;;;5078661;28;20165;-57
2023/12/05 12:40:33;;;;;;;4.80;2.30;;;6.80;99.90;;;;;;5077753;28;20050;-57
2023/12/05 12:42:59;;;;;;;4.63;1.90;;;6.80;99.90;;;;;;5071947;28;20141;-58
2023/12/05 12:45:27;;;;;;;3.00;1.60;;;6.80;99.90;;;;;;5074552;28;20610;-56
2023/12/05 12:47:53;;;;;;;4.57;1.93;;;6.80;99.90;;;;;;5080583;28;20036;-58
2023/12/05 12:50:19;;;;;;;4.73;2.00;;;6.80;99.90;;;;;;5073978;28;20039;-57
2023/12/05 12:52:46;;;;;;;4.00;1.80;;;6.70;99.90;;;;;;5074716;28;20088;-55
2023/12/05 12:55:11;;;;;;;9.57;3.63;;;6.80;99.90;;;;;;5074711;28;20103;-56
2023/12/05 12:57:37;;;;;;;5.97;3.03;;;6.80;99.90;;;;;;5080004;28;20115;-58